Terminal Aerodrome Forecast
Issued by NWS Sterling, VA

Current Version | Previous Version | Graphics & Text | Print | Product List | Glossary On
Versions: 1 2 3 4 5 6 7 8 9 10 11 12
000
FTUS41 KLWX 272334
TAFMRB
TAF
KMRB 272334Z 2800/2824 11004KT P6SM FEW250
     FM280500 VRB03KT 5SM BR FEW250
     FM281300 VRB03KT P6SM FEW250=

USA.gov is the U.S. government's official web portal to all federal, state and local government web resources and services.